createdAt,value
2023-03-02T00:02:19.264Z,41.28
2023-03-02T00:04:51.983Z,40.67
2023-03-02T00:07:25.467Z,40.62
2023-03-02T00:09:56.068Z,40.82
2023-03-02T00:12:25.884Z,40.98
2023-03-02T00:14:55.425Z,40.98
2023-03-02T00:17:28.892Z,41.83
2023-03-02T00:20:10.406Z,41.61
2023-03-02T00:22:39.920Z,40.80
2023-03-02T00:25:11.264Z,41.06
2023-03-02T00:27:40.905Z,40.91
2023-03-02T00:30:12.395Z,41.20
2023-03-02T00:32:43.425Z,41.30
2023-03-02T00:35:13.133Z,41.43
2023-03-02T00:37:42.423Z,40.86
2023-03-02T00:40:12.888Z,41.09
2023-03-02T00:42:42.449Z,40.90
2023-03-02T00:45:12.519Z,41.35
2023-03-02T00:47:43.718Z,41.90
2023-03-02T00:50:13.521Z,41.46
2023-03-02T00:52:42.941Z,41.58
2023-03-02T00:55:12.610Z,41.92
2023-03-02T00:57:41.901Z,41.42
2023-03-02T01:00:12.640Z,40.89
2023-03-02T01:02:44.803Z,40.49
2023-03-02T01:05:18.979Z,42.38
2023-03-02T01:07:49.638Z,42.58
2023-03-02T01:10:19.190Z,43.29
2023-03-02T01:12:48.483Z,42.50
2023-03-02T01:15:17.998Z,42.05
2023-03-02T01:17:48.596Z,42.34
2023-03-02T01:20:19.418Z,43.29
2023-03-02T01:22:48.870Z,42.93
2023-03-02T01:25:18.500Z,42.18
2023-03-02T01:27:47.765Z,41.92
2023-03-02T01:30:18.761Z,42.35
2023-03-02T01:32:49.475Z,42.48
2023-03-02T01:35:19.205Z,42.56
2023-03-02T01:37:48.570Z,42.34
2023-03-02T01:40:18.085Z,42.18
2023-03-02T01:42:58.244Z,42.08
2023-03-02T01:45:47.895Z,41.87
2023-03-02T01:48:28.841Z,42.58
2023-03-02T01:50:59.959Z,42.56
2023-03-02T01:53:33.313Z,42.31
2023-03-02T01:56:05.806Z,42.85
2023-03-02T01:58:37.973Z,42.21
2023-03-02T02:01:15.461Z,41.88
2023-03-02T02:03:49.270Z,41.73
2023-03-02T02:06:24.713Z,41.73
2023-03-02T02:08:57.505Z,41.46
2023-03-02T02:11:27.201Z,41.74
2023-03-02T02:13:59.486Z,41.42
2023-03-02T02:16:30.786Z,41.78
2023-03-02T02:19:02.593Z,41.47
2023-03-02T02:21:32.854Z,41.45
2023-03-02T02:24:11.120Z,41.53
2023-03-02T02:26:45.850Z,41.12
2023-03-02T02:29:39.240Z,41.21
2023-03-02T02:32:46.344Z,41.41
2023-03-02T02:35:45.297Z,41.52
2023-03-02T02:38:21.820Z,41.38
2023-03-02T02:40:56.577Z,40.93
2023-03-02T02:43:33.787Z,41.78
2023-03-02T02:46:04.183Z,41.62
2023-03-02T02:48:35.380Z,42.15
2023-03-02T02:51:07.323Z,41.77
2023-03-02T02:53:43.969Z,42.03
2023-03-02T02:56:14.430Z,42.25
2023-03-02T02:58:52.177Z,41.85
2023-03-02T03:01:26.282Z,41.83
2023-03-02T03:04:01.961Z,41.83
2023-03-02T03:06:38.593Z,42.23
2023-03-02T03:09:09.818Z,42.93
2023-03-02T03:11:46.325Z,42.60
2023-03-02T03:14:19.892Z,42.62
2023-03-02T03:16:53.409Z,41.98
2023-03-02T03:19:25.456Z,43.54
2023-03-02T03:21:57.524Z,42.55
2023-03-02T03:24:29.958Z,43.20
2023-03-02T03:27:01.561Z,42.50
2023-03-02T03:29:34.878Z,42.28
2023-03-02T03:37:01.880Z,42.39
2023-03-02T03:39:35.958Z,42.75
2023-03-02T03:42:07.024Z,44.49
2023-03-02T03:44:38.140Z,43.37
2023-03-02T03:47:08.208Z,43.66
2023-03-02T03:49:37.862Z,44.12
2023-03-02T03:52:09.101Z,44.20
2023-03-02T03:54:38.670Z,44.45
2023-03-02T03:57:12.252Z,44.61
2023-03-02T03:59:43.511Z,44.30
2023-03-02T04:02:13.269Z,43.92
2023-03-02T04:04:46.385Z,43.66
2023-03-02T04:07:19.587Z,42.63
2023-03-02T04:09:49.552Z,42.67
2023-03-02T04:12:19.478Z,43.96
2023-03-02T04:14:54.502Z,43.76
2023-03-02T04:17:24.308Z,44.51
2023-03-02T04:19:53.884Z,45.13
2023-03-02T04:22:23.819Z,45.08
2023-03-02T04:24:54.153Z,44.91
2023-03-02T04:27:24.083Z,44.18
2023-03-02T04:29:54.783Z,44.21
2023-03-02T04:32:24.534Z,44.70
2023-03-02T04:34:57.169Z,45.55
2023-03-02T04:37:27.998Z,45.29
2023-03-02T04:39:57.630Z,45.01
2023-03-02T04:42:27.164Z,45.88
2023-03-02T04:44:58.106Z,44.80
2023-03-02T04:47:28.074Z,44.71
2023-03-02T04:49:57.664Z,44.41
2023-03-02T04:52:27.205Z,44.03
2023-03-02T04:54:56.701Z,43.65
2023-03-02T04:57:26.503Z,44.46
2023-03-02T04:59:57.664Z,43.57
2023-03-02T05:02:27.435Z,43.68
2023-03-02T05:04:56.757Z,43.64
2023-03-02T05:07:26.282Z,43.70
2023-03-02T05:09:55.769Z,44.68
2023-03-02T05:12:25.380Z,44.89
2023-03-02T05:14:54.566Z,44.17
2023-03-02T05:17:25.528Z,43.39
2023-03-02T05:19:54.822Z,43.70
2023-03-02T05:22:24.371Z,43.32
2023-03-02T05:24:53.634Z,43.38
2023-03-02T05:27:23.224Z,43.66
2023-03-02T05:29:52.564Z,43.84
2023-03-02T05:32:22.183Z,44.05
2023-03-02T05:34:52.979Z,43.63
2023-03-02T05:37:22.549Z,43.52
2023-03-02T05:39:51.939Z,43.53
2023-03-02T05:42:21.494Z,43.86
2023-03-02T05:44:50.799Z,44.26
2023-03-02T05:47:20.446Z,45.18
2023-03-02T05:49:51.031Z,44.11
2023-03-02T05:52:20.646Z,44.04
2023-03-02T05:54:49.956Z,43.57
2023-03-02T05:57:19.752Z,43.20
2023-03-02T05:59:51.033Z,44.56
2023-03-02T06:02:21.035Z,44.02
2023-03-02T06:04:51.753Z,45.11
2023-03-02T06:07:21.364Z,43.91
2023-03-02T06:09:51.171Z,44.00
2023-03-02T06:12:21.367Z,43.05
2023-03-02T06:14:50.838Z,43.09
2023-03-02T06:17:20.513Z,43.79
2023-03-02T06:19:51.181Z,43.53
2023-03-02T06:22:20.869Z,43.48
2023-03-02T06:24:50.154Z,44.13
2023-03-02T06:27:19.660Z,43.97
2023-03-02T06:29:49.049Z,43.93
2023-03-02T06:32:18.924Z,43.86
2023-03-02T06:34:48.312Z,43.78
2023-03-02T06:37:19.607Z,44.13
2023-03-02T06:39:48.858Z,43.49
2023-03-02T06:42:18.533Z,44.28
2023-03-02T06:44:48.503Z,44.12
2023-03-02T06:47:18.881Z,43.50
2023-03-02T06:49:48.371Z,43.72
2023-03-02T06:52:19.611Z,43.07
2023-03-02T06:54:49.245Z,43.62
2023-03-02T06:57:19.925Z,43.47
2023-03-02T06:59:49.187Z,44.14
2023-03-02T07:02:18.833Z,43.73
2023-03-02T07:04:48.156Z,43.72
2023-03-02T07:07:19.243Z,44.74
2023-03-02T07:09:48.750Z,44.27
2023-03-02T07:12:18.336Z,43.18
2023-03-02T07:14:47.806Z,42.03
2023-03-02T07:17:17.375Z,42.32
2023-03-02T07:19:46.971Z,43.29
2023-03-02T07:22:16.506Z,42.41
2023-03-02T07:24:47.218Z,42.81
2023-03-02T07:27:19.984Z,43.39
2023-03-02T07:30:40.273Z,41.14
2023-03-02T07:33:10.610Z,42.35
2023-03-02T07:35:40.235Z,42.34
2023-03-02T07:38:10.081Z,42.26
2023-03-02T07:40:47.049Z,40.69
2023-03-02T07:43:22.955Z,39.80
2023-03-02T07:45:59.549Z,40.05
2023-03-02T07:48:33.605Z,39.93
2023-03-02T07:51:07.917Z,40.23
2023-03-02T07:53:38.814Z,39.04
2023-03-02T07:56:11.771Z,39.76
2023-03-02T07:58:41.366Z,40.51
2023-03-02T08:01:10.865Z,38.84
2023-03-02T08:03:40.453Z,39.57
2023-03-02T08:06:11.750Z,39.70
2023-03-02T08:08:41.535Z,39.92
2023-03-02T08:11:14.124Z,39.31
2023-03-02T08:13:49.695Z,39.39
2023-03-02T08:16:19.464Z,39.33
2023-03-02T08:18:49.468Z,38.10
2023-03-02T08:21:20.843Z,38.11
2023-03-02T08:23:50.753Z,38.12
2023-03-02T08:26:22.319Z,38.39
2023-03-02T08:28:52.088Z,38.63
2023-03-02T08:31:21.596Z,38.09
2023-03-02T08:33:51.212Z,35.90
2023-03-02T08:36:21.794Z,36.76
2023-03-02T08:38:51.971Z,37.49
2023-03-02T08:41:24.588Z,38.06
2023-03-02T08:43:54.550Z,37.48
2023-03-02T08:46:24.371Z,36.56
2023-03-02T08:48:54.022Z,37.06
2023-03-02T08:51:25.178Z,35.98
2023-03-02T08:53:56.704Z,36.01
2023-03-02T08:56:38.609Z,35.31
2023-03-02T08:59:17.303Z,35.93
2023-03-02T09:01:50.370Z,36.99
2023-03-02T09:04:29.785Z,36.39
2023-03-02T09:07:01.099Z,35.48
2023-03-02T09:09:30.924Z,34.17
2023-03-02T09:12:02.629Z,34.81
2023-03-02T09:14:32.172Z,34.87
2023-03-02T09:17:01.644Z,35.18
2023-03-02T09:19:31.276Z,35.06
2023-03-02T09:22:00.763Z,34.11
2023-03-02T09:24:30.986Z,34.93
2023-03-02T09:27:01.862Z,34.56
2023-03-02T09:29:31.438Z,34.12
2023-03-02T09:32:01.370Z,34.57
2023-03-02T09:34:31.165Z,33.82
2023-03-02T09:37:00.632Z,31.72
2023-03-02T09:39:30.364Z,32.32
2023-03-02T09:42:42.934Z,32.26
2023-03-02T09:45:37.250Z,31.33
2023-03-02T09:48:16.093Z,31.95
2023-03-02T09:50:57.217Z,30.90
2023-03-02T09:53:38.436Z,29.74
2023-03-02T09:56:17.158Z,29.90
2023-03-02T09:58:56.188Z,29.91
2023-03-02T10:01:37.308Z,28.82
2023-03-02T10:04:16.449Z,29.66
2023-03-02T10:06:47.131Z,29.65
2023-03-02T10:09:16.619Z,28.75
2023-03-02T10:12:05.218Z,27.97
2023-03-02T10:14:42.774Z,26.57
2023-03-02T10:17:31.473Z,26.81
2023-03-02T10:20:06.017Z,26.71
2023-03-02T10:22:39.863Z,27.29
2023-03-02T10:25:23.408Z,25.75
2023-03-02T10:27:57.715Z,25.24
2023-03-02T10:30:33.192Z,25.09
2023-03-02T10:33:10.993Z,23.22
2023-03-02T10:35:45.268Z,23.51
2023-03-02T10:38:16.933Z,22.68
2023-03-02T10:40:50.056Z,20.57
2023-03-02T10:43:22.134Z,18.67
2023-03-02T10:46:03.028Z,18.71
2023-03-02T10:48:32.734Z,19.80
2023-03-02T10:51:02.343Z,19.41
2023-03-02T10:53:31.983Z,19.23
2023-03-02T10:56:01.404Z,17.82
2023-03-02T10:58:33.867Z,16.18
2023-03-02T11:01:07.292Z,17.35
2023-03-02T11:03:36.910Z,16.50
2023-03-02T11:06:20.608Z,15.72
2023-03-02T11:09:01.066Z,16.05
2023-03-02T11:11:30.930Z,17.16
2023-03-02T11:14:10.513Z,15.87
2023-03-02T11:16:41.182Z,15.80
2023-03-02T11:19:16.678Z,15.58
2023-03-02T11:21:55.017Z,16.03
2023-03-02T11:24:31.309Z,14.64
2023-03-02T11:27:07.994Z,14.79
2023-03-02T11:29:43.195Z,13.94
2023-03-02T11:32:19.156Z,15.22
2023-03-02T11:34:53.328Z,15.31
2023-03-02T11:37:24.410Z,16.36
2023-03-02T11:40:06.313Z,15.95
2023-03-02T11:42:37.913Z,15.50
2023-03-02T11:45:20.683Z,15.70
2023-03-02T11:48:02.425Z,15.71
2023-03-02T11:50:35.548Z,17.58
2023-03-02T11:53:09.071Z,16.13
2023-03-02T11:55:45.693Z,15.29
2023-03-02T11:58:20.747Z,13.87
2023-03-02T12:00:52.206Z,13.63
2023-03-02T12:03:36.919Z,14.34
2023-03-02T12:06:08.810Z,14.69
2023-03-02T12:08:41.178Z,13.23
2023-03-02T12:11:34.714Z,14.86
2023-03-02T12:14:05.643Z,14.64
2023-03-02T12:16:41.037Z,15.51
2023-03-02T12:19:26.644Z,14.67
2023-03-02T12:22:02.213Z,13.74
2023-03-02T12:24:33.597Z,14.25
2023-03-02T12:27:05.843Z,14.37
2023-03-02T12:29:43.118Z,13.68
2023-03-02T12:32:15.395Z,13.40
2023-03-02T12:34:54.391Z,15.18
2023-03-02T12:37:28.610Z,17.69
2023-03-02T12:40:31.216Z,16.60
2023-03-02T12:43:26.807Z,14.74
2023-03-02T12:46:23.036Z,14.98
2023-03-02T12:49:05.342Z,15.63
2023-03-02T12:51:52.246Z,14.38
2023-03-02T12:54:24.408Z,13.28
2023-03-02T12:57:09.011Z,14.73
2023-03-02T12:59:38.692Z,14.21
2023-03-02T13:02:19.715Z,12.95
2023-03-02T13:04:55.709Z,12.31
2023-03-02T13:07:28.840Z,13.98
2023-03-02T13:10:00.993Z,15.44
2023-03-02T13:12:30.869Z,13.79
2023-03-02T13:15:01.360Z,12.73
2023-03-02T13:17:33.260Z,13.00
2023-03-02T13:20:06.249Z,12.04
2023-03-02T13:22:37.162Z,11.81
2023-03-02T13:25:21.767Z,13.35
2023-03-02T13:27:54.621Z,12.52
2023-03-02T13:30:25.023Z,13.17
2023-03-02T13:32:59.628Z,13.08
2023-03-02T13:35:31.353Z,13.50
2023-03-02T13:38:07.354Z,13.75
2023-03-02T13:40:44.866Z,11.86
2023-03-02T13:43:32.028Z,11.36
2023-03-02T13:46:03.883Z,13.30
2023-03-02T13:48:34.082Z,11.96
2023-03-02T13:51:15.410Z,11.36
2023-03-02T13:53:52.873Z,12.45
2023-03-02T13:56:26.138Z,13.56
2023-03-02T13:58:55.456Z,13.07
2023-03-02T14:01:25.414Z,12.39
2023-03-02T14:03:56.452Z,13.25
2023-03-02T14:06:27.006Z,12.80
2023-03-02T14:08:57.772Z,13.64
2023-03-02T14:11:28.316Z,14.31
2023-03-02T14:13:57.795Z,13.25
2023-03-02T14:16:28.173Z,13.20
2023-03-02T14:18:57.766Z,13.19
2023-03-02T14:21:28.164Z,13.43
2023-03-02T14:23:59.669Z,14.31
2023-03-02T14:26:34.795Z,13.49
2023-03-02T14:29:09.018Z,14.12
2023-03-02T14:31:38.577Z,14.96
2023-03-02T14:34:07.893Z,14.82
2023-03-02T14:36:38.442Z,13.72
2023-03-02T14:39:21.241Z,13.99
2023-03-02T14:41:54.091Z,13.75
2023-03-02T14:44:24.227Z,13.57
2023-03-02T14:46:54.336Z,14.36
2023-03-02T14:49:23.839Z,15.87
2023-03-02T14:52:00.468Z,15.72
2023-03-02T14:54:37.718Z,16.52
2023-03-02T14:57:14.612Z,16.44
2023-03-02T14:59:44.033Z,15.93
2023-03-02T15:02:24.681Z,16.73
2023-03-02T15:04:56.201Z,16.42
2023-03-02T15:07:28.437Z,16.58
2023-03-02T15:09:59.822Z,17.95
2023-03-02T15:12:29.451Z,17.84
2023-03-02T15:14:59.011Z,17.93
2023-03-02T15:17:28.792Z,17.89
2023-03-02T15:19:58.561Z,16.75
2023-03-02T15:22:28.312Z,16.51
2023-03-02T15:24:59.258Z,16.28
2023-03-02T15:27:28.975Z,16.39
2023-03-02T15:29:58.286Z,16.68
2023-03-02T15:32:28.007Z,17.34
2023-03-02T15:34:57.538Z,17.54
2023-03-02T15:37:28.351Z,20.02
2023-03-02T15:40:00.340Z,20.22
2023-03-02T15:42:29.984Z,18.92
2023-03-02T15:44:59.444Z,19.76
2023-03-02T15:47:29.210Z,19.72
2023-03-02T15:49:58.544Z,19.59
2023-03-02T15:52:28.726Z,20.74
2023-03-02T15:54:59.600Z,22.39
2023-03-02T15:57:31.827Z,23.47
2023-03-02T16:00:02.123Z,26.86
2023-03-02T16:02:37.551Z,28.26
2023-03-02T16:05:07.721Z,29.51
2023-03-02T16:07:38.212Z,29.17
2023-03-02T16:10:15.331Z,28.65
2023-03-02T16:12:46.770Z,29.90
2023-03-02T16:15:16.354Z,32.38
2023-03-02T16:17:48.474Z,31.66
2023-03-02T16:20:18.117Z,30.79
2023-03-02T16:22:48.186Z,31.86
2023-03-02T16:25:19.127Z,31.97
2023-03-02T16:27:50.068Z,32.45
2023-03-02T16:30:21.969Z,32.48
2023-03-02T16:32:52.835Z,32.01
2023-03-02T16:35:22.058Z,32.95
2023-03-02T16:37:51.787Z,33.43
2023-03-02T16:40:22.950Z,33.47
2023-03-02T16:42:52.687Z,32.98
2023-03-02T16:45:23.124Z,35.26
2023-03-02T16:47:52.701Z,34.18
2023-03-02T16:50:22.310Z,34.84
2023-03-02T16:52:51.948Z,34.33
2023-03-02T16:55:22.760Z,34.14
2023-03-02T16:57:52.467Z,34.49
2023-03-02T17:00:23.571Z,35.18
2023-03-02T17:02:54.671Z,37.48
2023-03-02T17:05:24.829Z,35.34
2023-03-02T17:07:57.055Z,36.61
2023-03-02T17:10:28.492Z,37.56
2023-03-02T17:12:58.037Z,36.48
2023-03-02T17:15:27.497Z,36.38
2023-03-02T17:17:57.212Z,36.60
2023-03-02T17:20:26.904Z,38.36
2023-03-02T17:22:56.795Z,39.01
2023-03-02T17:25:27.738Z,37.27
2023-03-02T17:27:57.488Z,37.59
2023-03-02T17:30:26.871Z,38.20
2023-03-02T17:32:56.492Z,38.11
2023-03-02T17:35:25.849Z,38.37
2023-03-02T17:37:55.565Z,38.52
2023-03-02T17:40:25.135Z,39.88
2023-03-02T17:42:57.830Z,39.18
2023-03-02T17:45:29.173Z,40.84
2023-03-02T17:47:59.828Z,39.11
2023-03-02T17:50:31.926Z,38.79
2023-03-02T17:53:02.292Z,39.10
2023-03-02T17:55:31.696Z,38.79
2023-03-02T17:58:02.635Z,38.37
2023-03-02T18:00:32.265Z,38.69
2023-03-02T18:03:02.055Z,39.21
2023-03-02T18:05:31.588Z,39.40
2023-03-02T18:08:01.325Z,38.83
2023-03-02T18:10:30.684Z,38.71
2023-03-02T18:13:01.686Z,39.67
2023-03-02T18:15:31.571Z,39.56
2023-03-02T18:18:01.591Z,40.29
2023-03-02T18:20:31.168Z,40.18
2023-03-02T18:23:00.919Z,39.26
2023-03-02T18:25:30.537Z,38.41
2023-03-02T18:28:03.708Z,40.09
2023-03-02T18:30:36.138Z,41.00
2023-03-02T18:33:05.947Z,42.34
2023-03-02T18:35:35.803Z,41.64
2023-03-02T18:38:05.497Z,40.82
2023-03-02T18:40:35.073Z,40.73
2023-03-02T18:43:06.296Z,42.32
2023-03-02T18:45:35.770Z,43.50
2023-03-02T18:48:06.222Z,42.27
2023-03-02T18:50:35.634Z,41.58
2023-03-02T18:53:05.423Z,43.09
2023-03-02T18:55:34.931Z,40.72
2023-03-02T18:58:05.926Z,41.56
2023-03-02T19:00:37.803Z,41.36
2023-03-02T19:03:07.439Z,42.27
2023-03-02T19:05:36.923Z,41.62
2023-03-02T19:08:08.006Z,42.73
2023-03-02T19:10:38.546Z,42.54
2023-03-02T19:13:11.685Z,41.96
2023-03-02T19:15:41.400Z,43.07
2023-03-02T19:18:16.244Z,42.89
2023-03-02T19:20:47.499Z,43.12
2023-03-02T19:23:18.363Z,42.70
2023-03-02T19:25:48.325Z,42.53
2023-03-02T19:28:19.377Z,43.75
2023-03-02T19:30:48.899Z,43.57
2023-03-02T19:33:19.517Z,43.79
2023-03-02T19:35:48.956Z,43.54
2023-03-02T19:38:19.352Z,42.74
2023-03-02T19:40:49.187Z,43.41
2023-03-02T19:43:20.433Z,43.26
2023-03-02T19:45:50.159Z,43.87
2023-03-02T19:48:20.023Z,43.05
2023-03-02T19:50:50.082Z,43.05
2023-03-02T19:53:19.774Z,42.31
2023-03-02T19:55:51.512Z,41.96
2023-03-02T19:58:23.611Z,42.50
2023-03-02T20:00:53.256Z,41.12
2023-03-02T20:03:22.981Z,41.73
2023-03-02T20:05:52.795Z,41.47
2023-03-02T20:08:22.849Z,41.69
2023-03-02T20:10:52.509Z,41.60
2023-03-02T20:13:26.018Z,41.04
2023-03-02T20:15:56.550Z,41.78
2023-03-02T20:18:27.540Z,40.80
2023-03-02T20:20:57.222Z,43.13
2023-03-02T20:23:27.500Z,42.14
2023-03-02T20:25:56.769Z,41.96
2023-03-02T20:28:28.103Z,41.23
2023-03-02T20:30:59.795Z,39.74
2023-03-02T20:33:33.048Z,42.46
2023-03-02T20:36:04.125Z,42.06
2023-03-02T20:38:36.830Z,41.36
2023-03-02T20:41:06.968Z,41.83
2023-03-02T20:43:38.235Z,43.56
2023-03-02T20:46:10.068Z,43.42
2023-03-02T20:48:40.134Z,43.63
2023-03-02T20:51:09.489Z,42.15
2023-03-02T20:53:39.058Z,41.92
2023-03-02T20:56:08.697Z,41.43
2023-03-02T20:58:41.310Z,41.97
2023-03-02T21:01:10.834Z,41.86
2023-03-02T21:03:41.207Z,40.83
2023-03-02T21:06:11.422Z,40.49
2023-03-02T21:08:41.666Z,42.52
2023-03-02T21:11:15.722Z,41.27
2023-03-02T21:13:49.154Z,40.96
2023-03-02T21:16:22.853Z,40.47
2023-03-02T21:18:52.594Z,41.22
2023-03-02T21:21:32.498Z,40.95
2023-03-02T21:24:05.728Z,40.92
2023-03-02T21:26:36.536Z,41.33
2023-03-02T21:29:09.532Z,40.86
2023-03-02T21:31:39.139Z,42.69
2023-03-02T21:34:08.844Z,42.93
2023-03-02T21:36:38.272Z,44.24
2023-03-02T21:39:08.418Z,43.54
2023-03-02T21:41:38.076Z,44.60
2023-03-02T21:44:09.202Z,44.55
2023-03-02T21:46:39.787Z,43.66
2023-03-02T21:49:09.805Z,43.28
2023-03-02T21:51:39.196Z,45.87
2023-03-02T21:54:09.226Z,44.26
2023-03-02T21:56:38.735Z,44.99
2023-03-02T21:59:09.931Z,45.17
2023-03-02T22:01:39.421Z,44.05
2023-03-02T22:04:09.451Z,45.36
2023-03-02T22:06:38.818Z,45.05
2023-03-02T22:09:08.355Z,42.28
2023-03-02T22:11:39.237Z,41.92
2023-03-02T22:14:14.769Z,41.25
2023-03-02T22:16:47.534Z,41.42
2023-03-02T22:19:29.291Z,42.87
2023-03-02T22:22:00.192Z,41.63
2023-03-02T22:24:31.521Z,43.41
2023-03-02T22:27:03.112Z,42.93
2023-03-02T22:29:39.334Z,43.14
2023-03-02T22:32:19.025Z,42.54
2023-03-02T22:34:51.359Z,42.75
2023-03-02T22:37:22.384Z,43.02
2023-03-02T22:39:55.677Z,43.68
2023-03-02T22:42:27.044Z,43.46
2023-03-02T22:45:12.981Z,44.50
2023-03-02T22:47:42.622Z,44.24
2023-03-02T22:50:22.076Z,44.29
2023-03-02T22:52:52.009Z,42.93
2023-03-02T22:55:36.871Z,43.24
2023-03-02T22:58:31.022Z,43.45
2023-03-02T23:01:03.254Z,43.54
2023-03-02T23:03:39.967Z,43.30
2023-03-02T23:06:31.527Z,44.45
2023-03-02T23:09:03.203Z,44.15
2023-03-02T23:11:37.679Z,43.39
2023-03-02T23:14:19.131Z,44.92
2023-03-02T23:16:53.872Z,43.82
2023-03-02T23:19:23.734Z,45.21
2023-03-02T23:21:53.388Z,42.89
2023-03-02T23:24:22.713Z,43.88
2023-03-02T23:26:54.046Z,42.65
2023-03-02T23:29:23.604Z,43.82
2023-03-02T23:31:54.716Z,43.90
2023-03-02T23:34:24.548Z,42.53
2023-03-02T23:36:54.091Z,43.31
2023-03-02T23:39:23.422Z,42.04
2023-03-02T23:41:53.065Z,41.99
2023-03-02T23:44:22.414Z,41.46
2023-03-02T23:46:53.583Z,42.86
2023-03-02T23:49:22.860Z,42.21
2023-03-02T23:51:52.696Z,41.73
2023-03-02T23:54:22.123Z,40.63
2023-03-02T23:56:51.753Z,40.69
2023-03-02T23:59:21.128Z,44.13
